createdAt,value
2023-02-02T00:01:56.202Z,80.04
2023-02-02T00:04:27.818Z,80.38
2023-02-02T00:06:59.784Z,79.81
2023-02-02T00:09:30.952Z,79.81
2023-02-02T00:12:01.768Z,79.97
2023-02-02T00:14:30.980Z,80.25
2023-02-02T00:16:59.929Z,80.23
2023-02-02T00:19:34.161Z,80.24
2023-02-02T00:22:03.081Z,80.30
2023-02-02T00:24:31.976Z,80.24
2023-02-02T00:27:01.471Z,80.24
2023-02-02T00:29:32.157Z,79.93
2023-02-02T00:32:00.959Z,80.25
2023-02-02T00:34:30.293Z,80.02
2023-02-02T00:36:59.129Z,79.99
2023-02-02T00:39:28.055Z,80.37
2023-02-02T00:41:56.870Z,80.07
2023-02-02T00:44:44.247Z,80.43
2023-02-02T00:47:13.172Z,80.22
2023-02-02T00:49:41.999Z,80.44
2023-02-02T00:52:10.877Z,80.36
2023-02-02T00:54:39.791Z,80.49
2023-02-02T00:57:08.632Z,80.62
2023-02-02T00:59:37.471Z,80.29
2023-02-02T01:02:07.873Z,80.40
2023-02-02T01:04:37.232Z,80.33
2023-02-02T01:07:06.200Z,80.22
2023-02-02T01:09:34.966Z,80.45
2023-02-02T01:12:03.850Z,80.25
2023-02-02T01:14:33.595Z,80.48
2023-02-02T01:17:02.576Z,80.04
2023-02-02T01:19:31.808Z,80.26
2023-02-02T01:22:02.707Z,80.03
2023-02-02T01:24:32.347Z,80.28
2023-02-02T01:27:02.135Z,80.20
2023-02-02T01:29:32.638Z,80.23
2023-02-02T01:32:01.600Z,80.56
2023-02-02T01:34:30.467Z,80.47
2023-02-02T01:36:59.386Z,80.31
2023-02-02T01:39:28.340Z,80.45
2023-02-02T01:41:58.048Z,80.49
2023-02-02T01:45:06.040Z,80.41
2023-02-02T01:47:42.250Z,80.12
2023-02-02T01:50:15.562Z,80.26
2023-02-02T01:52:48.452Z,80.13
2023-02-02T01:55:21.942Z,80.29
2023-02-02T01:57:58.084Z,80.16
2023-02-02T02:00:28.675Z,80.51
2023-02-02T02:03:08.139Z,80.40
2023-02-02T02:06:04.189Z,80.06
2023-02-02T02:08:55.192Z,80.38
2023-02-02T02:11:25.479Z,80.65
2023-02-02T02:14:16.412Z,80.00
2023-02-02T02:17:29.917Z,80.06
2023-02-02T02:20:46.765Z,80.22
2023-02-02T02:23:55.559Z,80.27
2023-02-02T02:26:59.619Z,80.31
2023-02-02T02:29:48.582Z,80.13
2023-02-02T02:32:32.079Z,80.36
2023-02-02T02:35:09.935Z,80.11
2023-02-02T02:37:42.698Z,81.08
2023-02-02T02:40:29.500Z,81.39
2023-02-02T02:43:07.810Z,80.84
2023-02-02T02:45:37.960Z,80.42
2023-02-02T02:48:10.950Z,80.72
2023-02-02T02:50:40.407Z,80.60
2023-02-02T02:53:15.067Z,79.77
2023-02-02T02:55:51.371Z,80.33
2023-02-02T02:58:38.076Z,81.58
2023-02-02T03:01:25.829Z,81.51
2023-02-02T03:04:23.888Z,81.72
2023-02-02T03:07:39.554Z,79.65
2023-02-02T03:10:13.624Z,79.15
2023-02-02T03:12:50.329Z,79.41
2023-02-02T03:15:20.354Z,78.58
2023-02-02T03:17:51.592Z,78.08
2023-02-02T03:20:20.839Z,75.48
2023-02-02T03:22:49.677Z,74.09
2023-02-02T03:25:18.432Z,75.48
2023-02-02T03:27:47.539Z,77.79
2023-02-02T03:30:16.547Z,79.26
2023-02-02T03:32:45.729Z,79.78
2023-02-02T03:35:14.634Z,80.15
2023-02-02T03:37:43.489Z,80.80
2023-02-02T03:40:12.611Z,81.43
2023-02-02T03:42:41.501Z,81.94
2023-02-02T03:45:11.438Z,82.50
2023-02-02T03:47:40.322Z,83.50
2023-02-02T03:50:10.120Z,83.14
2023-02-02T03:52:38.941Z,82.42
2023-02-02T03:55:08.326Z,80.93
2023-02-02T03:57:37.399Z,80.94
2023-02-02T04:00:07.446Z,81.88
2023-02-02T04:02:41.282Z,83.56
2023-02-02T04:05:10.386Z,83.07
2023-02-02T04:07:39.320Z,80.89
2023-02-02T04:10:08.442Z,76.51
2023-02-02T04:12:37.240Z,76.16
2023-02-02T04:15:06.753Z,75.22
2023-02-02T04:17:36.059Z,76.52
2023-02-02T04:20:06.652Z,78.19
2023-02-02T04:22:35.540Z,78.17
2023-02-02T04:25:05.186Z,77.02
2023-02-02T04:27:34.666Z,75.12
2023-02-02T04:30:03.553Z,75.64
2023-02-02T04:32:32.903Z,77.07
2023-02-02T04:35:01.785Z,78.41
2023-02-02T04:37:32.955Z,78.82
2023-02-02T04:40:01.940Z,80.05
2023-02-02T04:42:33.467Z,80.74
2023-02-02T04:45:02.268Z,81.94
2023-02-02T04:47:32.059Z,82.07
2023-02-02T04:50:00.860Z,82.40
2023-02-02T04:52:30.364Z,82.54
2023-02-02T04:54:59.282Z,82.88
2023-02-02T04:57:28.517Z,84.03
2023-02-02T04:59:57.354Z,84.35
2023-02-02T05:02:27.050Z,82.81
2023-02-02T05:04:56.121Z,82.01
2023-02-02T05:07:24.991Z,82.61
2023-02-02T05:09:53.859Z,81.59
2023-02-02T05:12:22.655Z,81.31
2023-02-02T05:14:51.511Z,81.26
2023-02-02T05:17:20.411Z,81.80
2023-02-02T05:19:49.286Z,81.78
2023-02-02T05:22:18.168Z,82.12
2023-02-02T05:24:47.408Z,82.21
2023-02-02T05:27:16.370Z,82.65
2023-02-02T05:29:45.150Z,83.21
2023-02-02T05:32:13.945Z,83.84
2023-02-02T05:34:42.876Z,82.91
2023-02-02T05:37:11.875Z,80.75
2023-02-02T05:39:40.690Z,77.81
2023-02-02T05:42:09.626Z,78.17
2023-02-02T05:44:38.517Z,79.35
2023-02-02T05:47:07.303Z,79.82
2023-02-02T05:49:36.117Z,77.96
2023-02-02T05:52:05.768Z,76.08
2023-02-02T05:54:34.754Z,74.66
2023-02-02T05:57:03.792Z,73.87
2023-02-02T05:59:33.046Z,72.59
2023-02-02T06:02:03.566Z,70.79
2023-02-02T06:04:32.632Z,70.01
2023-02-02T06:07:01.550Z,70.55
2023-02-02T06:09:30.348Z,70.48
2023-02-02T06:11:59.171Z,70.56
2023-02-02T06:14:28.117Z,70.67
2023-02-02T06:16:57.049Z,71.48
2023-02-02T06:19:25.989Z,71.88
2023-02-02T06:21:54.850Z,72.76
2023-02-02T06:24:25.103Z,71.71
2023-02-02T06:26:53.974Z,71.52
2023-02-02T06:29:22.953Z,72.14
2023-02-02T06:31:51.813Z,73.59
2023-02-02T06:34:20.760Z,74.96
2023-02-02T06:36:49.577Z,76.77
2023-02-02T06:39:18.589Z,78.79
2023-02-02T06:41:48.865Z,79.87
2023-02-02T06:44:19.794Z,81.39
2023-02-02T06:46:48.667Z,82.96
2023-02-02T06:49:17.459Z,83.30
2023-02-02T06:51:48.818Z,83.16
2023-02-02T06:54:17.894Z,83.02
2023-02-02T06:56:46.710Z,84.03
2023-02-02T06:59:15.603Z,83.43
2023-02-02T07:01:45.189Z,83.88
2023-02-02T07:04:14.320Z,84.21
2023-02-02T07:06:43.242Z,83.68
2023-02-02T07:09:12.238Z,84.10
2023-02-02T07:11:43.661Z,83.91
2023-02-02T07:14:14.205Z,83.62
2023-02-02T07:16:43.081Z,84.06
2023-02-02T07:19:11.948Z,84.04
2023-02-02T07:21:40.826Z,84.48
2023-02-02T07:24:09.789Z,84.96
2023-02-02T07:26:39.807Z,85.45
2023-02-02T07:29:11.955Z,85.31
2023-02-02T07:31:41.706Z,85.78
2023-02-02T07:34:10.636Z,85.55
2023-02-02T07:36:39.819Z,85.22
2023-02-02T07:39:08.819Z,84.70
2023-02-02T07:41:37.994Z,84.64
2023-02-02T07:44:16.977Z,85.15
2023-02-02T07:46:48.007Z,84.71
2023-02-02T07:49:19.127Z,84.56
2023-02-02T07:51:49.887Z,84.09
2023-02-02T07:54:18.837Z,84.19
2023-02-02T07:56:47.823Z,84.21
2023-02-02T07:59:17.060Z,84.20
2023-02-02T08:01:46.901Z,84.26
2023-02-02T08:04:16.427Z,84.16
2023-02-02T08:06:45.609Z,84.40
2023-02-02T08:09:14.519Z,84.50
2023-02-02T08:11:43.549Z,85.06
2023-02-02T08:14:14.849Z,86.36
2023-02-02T08:16:43.895Z,86.40
2023-02-02T08:19:12.904Z,86.11
2023-02-02T08:21:41.896Z,84.84
2023-02-02T08:24:10.854Z,84.42
2023-02-02T08:26:39.836Z,84.88
2023-02-02T08:29:09.435Z,83.39
2023-02-02T08:31:44.136Z,82.19
2023-02-02T08:34:14.726Z,82.02
2023-02-02T08:36:43.693Z,82.10
2023-02-02T08:39:13.864Z,82.36
2023-02-02T08:41:42.943Z,82.81
2023-02-02T08:44:15.941Z,83.14
2023-02-02T08:46:45.715Z,83.33
2023-02-02T08:49:15.435Z,83.90
2023-02-02T08:51:44.544Z,83.54
2023-02-02T08:54:14.018Z,83.38
2023-02-02T08:56:43.180Z,83.18
2023-02-02T08:59:12.153Z,83.39
2023-02-02T09:01:42.099Z,83.43
2023-02-02T09:04:16.804Z,83.51
2023-02-02T09:06:46.240Z,83.34
2023-02-02T09:09:16.977Z,83.24
2023-02-02T09:11:45.989Z,83.54
2023-02-02T09:14:15.686Z,83.22
2023-02-02T09:16:45.667Z,83.80
2023-02-02T09:19:15.166Z,83.41
2023-02-02T09:21:44.312Z,83.45
2023-02-02T09:24:14.619Z,83.20
2023-02-02T09:26:44.913Z,83.11
2023-02-02T09:29:16.893Z,83.27
2023-02-02T09:31:46.283Z,83.38
2023-02-02T09:34:16.632Z,82.91
2023-02-02T09:36:45.915Z,83.05
2023-02-02T09:39:15.656Z,82.94
2023-02-02T09:42:17.397Z,83.35
2023-02-02T09:44:50.103Z,83.21
2023-02-02T09:47:37.618Z,83.31
2023-02-02T09:50:15.917Z,82.88
2023-02-02T09:52:47.498Z,82.84
2023-02-02T09:55:23.912Z,82.78
2023-02-02T09:58:13.337Z,82.76
2023-02-02T10:01:15.603Z,83.14
2023-02-02T10:04:12.313Z,83.30
2023-02-02T10:06:47.672Z,82.94
2023-02-02T10:09:44.590Z,82.99
2023-02-02T10:12:19.588Z,82.81
2023-02-02T10:15:13.184Z,82.71
2023-02-02T10:17:42.303Z,82.85
2023-02-02T10:20:44.328Z,83.03
2023-02-02T10:23:24.627Z,83.22
2023-02-02T10:26:06.680Z,82.90
2023-02-02T10:28:57.375Z,82.65
2023-02-02T10:31:46.581Z,82.51
2023-02-02T10:34:23.900Z,82.72
2023-02-02T10:37:24.402Z,82.56
2023-02-02T10:39:56.321Z,83.00
2023-02-02T10:43:23.956Z,82.45
2023-02-02T10:45:53.905Z,82.90
2023-02-02T10:48:33.446Z,82.90
2023-02-02T10:51:21.247Z,82.80
2023-02-02T10:54:02.002Z,82.92
2023-02-02T10:56:42.906Z,82.85
2023-02-02T10:59:22.448Z,82.67
2023-02-02T11:01:52.750Z,82.57
2023-02-02T11:04:42.035Z,82.39
2023-02-02T11:07:21.044Z,82.50
2023-02-02T11:09:49.887Z,82.26
2023-02-02T11:12:37.866Z,82.30
2023-02-02T11:15:29.055Z,82.29
2023-02-02T11:18:13.265Z,82.52
2023-02-02T11:20:42.538Z,82.32
2023-02-02T11:23:19.863Z,82.47
2023-02-02T11:26:01.979Z,82.19
2023-02-02T11:28:35.391Z,82.40
2023-02-02T11:31:04.692Z,82.63
2023-02-02T11:33:36.256Z,82.41
2023-02-02T11:36:18.418Z,82.46
2023-02-02T11:38:47.402Z,82.22
2023-02-02T11:41:17.820Z,82.20
2023-02-02T11:43:53.353Z,82.26
2023-02-02T11:46:30.378Z,82.02
2023-02-02T11:49:24.844Z,81.78
2023-02-02T11:52:05.088Z,82.07
2023-02-02T11:54:38.156Z,82.17
2023-02-02T11:57:10.963Z,82.04
2023-02-02T11:59:45.397Z,82.11
2023-02-02T12:02:21.439Z,82.25
2023-02-02T12:04:54.367Z,82.08
2023-02-02T12:07:33.512Z,82.24
2023-02-02T12:10:14.491Z,81.82
2023-02-02T12:12:58.030Z,82.09
2023-02-02T12:15:49.748Z,81.77
2023-02-02T12:18:54.185Z,81.64
2023-02-02T12:21:49.273Z,81.82
2023-02-02T12:24:37.366Z,81.96
2023-02-02T12:27:15.681Z,81.96
2023-02-02T12:30:22.713Z,81.48
2023-02-02T12:33:09.992Z,81.94
2023-02-02T12:36:11.121Z,81.76
2023-02-02T12:38:56.049Z,81.36
2023-02-02T12:41:27.918Z,81.83
2023-02-02T12:44:21.090Z,81.82
2023-02-02T12:47:11.895Z,81.67
2023-02-02T12:50:09.882Z,81.96
2023-02-02T12:52:48.254Z,81.97
2023-02-02T12:55:44.964Z,81.87
2023-02-02T12:58:14.007Z,81.60
2023-02-02T13:00:49.889Z,81.94
2023-02-02T13:03:22.307Z,81.67
2023-02-02T13:06:23.019Z,81.79
2023-02-02T13:09:01.668Z,81.70
2023-02-02T13:11:52.791Z,81.66
2023-02-02T13:14:37.857Z,81.94
2023-02-02T13:17:32.565Z,81.79
2023-02-02T13:20:07.028Z,81.81
2023-02-02T13:22:42.369Z,81.94
2023-02-02T13:25:28.375Z,81.59
2023-02-02T13:28:00.709Z,81.39
2023-02-02T13:30:33.177Z,81.31
2023-02-02T13:33:13.413Z,81.28
2023-02-02T13:35:54.347Z,81.49
2023-02-02T13:38:25.943Z,81.75
2023-02-02T13:40:57.365Z,81.58
2023-02-02T13:43:32.527Z,81.58
2023-02-02T13:46:19.324Z,81.34
2023-02-02T13:49:03.319Z,81.08
2023-02-02T13:51:44.027Z,81.19
2023-02-02T13:54:15.956Z,81.36
2023-02-02T13:57:01.984Z,81.44
2023-02-02T13:59:48.559Z,81.52
2023-02-02T14:02:47.420Z,81.14
2023-02-02T14:05:29.879Z,81.43
2023-02-02T14:08:24.970Z,81.43
2023-02-02T14:10:53.868Z,81.12
2023-02-02T14:13:57.917Z,81.00
2023-02-02T14:16:32.861Z,81.10
2023-02-02T14:19:07.319Z,80.93
2023-02-02T14:21:39.192Z,81.41
2023-02-02T14:24:27.045Z,81.39
2023-02-02T14:26:59.729Z,80.81
2023-02-02T14:29:40.211Z,81.14
2023-02-02T14:32:30.587Z,80.62
2023-02-02T14:35:11.834Z,81.13
2023-02-02T14:38:18.714Z,81.21
2023-02-02T14:41:38.970Z,81.13
2023-02-02T14:44:08.280Z,81.18
2023-02-02T14:46:45.104Z,80.83
2023-02-02T14:49:17.871Z,80.89
2023-02-02T14:51:54.149Z,80.97
2023-02-02T14:54:31.712Z,81.05
2023-02-02T14:57:23.028Z,81.14
2023-02-02T14:59:53.199Z,80.76
2023-02-02T15:02:36.784Z,81.37
2023-02-02T15:05:24.617Z,81.23
2023-02-02T15:08:15.868Z,81.22
2023-02-02T15:10:52.667Z,80.87
2023-02-02T15:13:38.132Z,81.21
2023-02-02T15:16:31.323Z,80.84
2023-02-02T15:19:15.123Z,80.86
2023-02-02T15:21:49.043Z,81.00
2023-02-02T15:24:24.020Z,80.73
2023-02-02T15:26:55.251Z,81.07
2023-02-02T15:29:43.306Z,81.03
2023-02-02T15:32:21.045Z,80.54
2023-02-02T15:34:55.192Z,80.64
2023-02-02T15:37:34.941Z,80.53
2023-02-02T15:40:06.465Z,80.76
2023-02-02T15:42:55.206Z,80.65
2023-02-02T15:45:30.610Z,80.76
2023-02-02T15:48:01.153Z,80.51
2023-02-02T15:50:30.377Z,80.59
2023-02-02T15:53:00.059Z,80.39
2023-02-02T15:55:34.853Z,80.67
2023-02-02T15:58:04.613Z,80.25
2023-02-02T16:00:38.870Z,80.45
2023-02-02T16:03:24.383Z,80.32
2023-02-02T16:05:56.963Z,79.88
2023-02-02T16:08:29.754Z,80.32
2023-02-02T16:11:19.078Z,80.53
2023-02-02T16:14:05.084Z,80.51
2023-02-02T16:16:41.051Z,80.48
2023-02-02T16:19:10.226Z,80.40
2023-02-02T16:22:02.228Z,80.54
2023-02-02T16:24:52.703Z,80.17
2023-02-02T16:27:26.197Z,80.45
2023-02-02T16:30:05.129Z,80.62
2023-02-02T16:32:37.799Z,80.53
2023-02-02T16:35:28.895Z,80.43
2023-02-02T16:38:38.310Z,80.78
2023-02-02T16:41:25.212Z,80.79
2023-02-02T16:43:54.467Z,80.64
2023-02-02T16:46:50.177Z,80.25
2023-02-02T16:49:24.437Z,80.39
2023-02-02T16:52:18.948Z,80.57
2023-02-02T16:54:53.996Z,80.29
2023-02-02T16:57:27.243Z,80.38
2023-02-02T17:00:02.374Z,80.64
2023-02-02T17:02:38.216Z,80.51
2023-02-02T17:05:28.575Z,80.61
2023-02-02T17:08:01.242Z,80.55
2023-02-02T17:10:38.381Z,80.49
2023-02-02T17:13:32.062Z,80.79
2023-02-02T17:16:01.309Z,81.00
2023-02-02T17:18:30.286Z,80.49
2023-02-02T17:21:05.190Z,80.50
2023-02-02T17:23:39.985Z,80.97
2023-02-02T17:26:10.469Z,80.87
2023-02-02T17:28:41.727Z,80.76
2023-02-02T17:31:14.650Z,80.98
2023-02-02T17:33:46.625Z,80.59
2023-02-02T17:36:15.466Z,80.63
2023-02-02T17:38:44.267Z,80.89
2023-02-02T17:41:14.838Z,80.38
2023-02-02T17:43:43.689Z,80.58
2023-02-02T17:46:14.008Z,80.45
2023-02-02T17:48:43.544Z,80.32
2023-02-02T17:51:18.362Z,80.47
2023-02-02T17:53:47.465Z,80.55
2023-02-02T17:56:16.324Z,80.29
2023-02-02T17:58:45.234Z,80.67
2023-02-02T18:01:15.024Z,80.38
2023-02-02T18:03:46.767Z,80.64
2023-02-02T18:06:15.889Z,80.65
2023-02-02T18:08:46.152Z,80.80
2023-02-02T18:11:16.984Z,80.65
2023-02-02T18:13:46.128Z,80.62
2023-02-02T18:16:15.583Z,80.71
2023-02-02T18:18:46.467Z,81.00
2023-02-02T18:21:15.418Z,80.58
2023-02-02T18:23:44.235Z,80.62
2023-02-02T18:26:15.532Z,80.75
2023-02-02T18:28:44.513Z,80.52
2023-02-02T18:31:15.678Z,80.67
2023-02-02T18:33:44.978Z,80.88
2023-02-02T18:36:20.621Z,80.83
2023-02-02T18:38:51.497Z,81.03
2023-02-02T18:41:22.150Z,80.99
2023-02-02T18:43:54.315Z,81.02
2023-02-02T18:46:23.646Z,81.11
2023-02-02T18:48:52.430Z,80.83
2023-02-02T18:51:22.578Z,80.61
2023-02-02T18:53:51.386Z,81.00
2023-02-02T18:56:20.301Z,80.93
2023-02-02T18:58:49.160Z,80.96
2023-02-02T19:01:20.860Z,80.88
2023-02-02T19:03:55.697Z,80.87
2023-02-02T19:06:43.669Z,80.91
2023-02-02T19:09:17.866Z,80.86
2023-02-02T19:11:51.776Z,81.02
2023-02-02T19:14:27.259Z,81.10
2023-02-02T19:17:00.793Z,80.94
2023-02-02T19:19:34.230Z,81.04
2023-02-02T19:22:17.310Z,81.00
2023-02-02T19:24:46.371Z,80.60
2023-02-02T19:27:24.126Z,80.92
2023-02-02T19:29:56.645Z,80.68
2023-02-02T19:32:27.525Z,81.05
2023-02-02T19:34:59.355Z,80.87
2023-02-02T19:37:30.778Z,81.13
2023-02-02T19:40:02.458Z,80.85
2023-02-02T19:42:31.813Z,81.05
2023-02-02T19:45:00.827Z,80.88
2023-02-02T19:47:33.508Z,81.07
2023-02-02T19:52:45.454Z,81.18
2023-02-02T19:55:34.208Z,80.91
2023-02-02T19:58:18.924Z,81.35
2023-02-02T20:00:50.723Z,80.85
2023-02-02T20:03:24.757Z,81.11
2023-02-02T20:05:56.256Z,81.07
2023-02-02T20:08:28.186Z,80.77
2023-02-02T20:11:01.284Z,81.33
2023-02-02T20:13:39.707Z,80.94
2023-02-02T20:16:16.425Z,81.20
2023-02-02T20:18:57.277Z,81.45
2023-02-02T20:21:37.215Z,81.35
2023-02-02T20:24:26.223Z,81.29
2023-02-02T20:26:58.925Z,80.84
2023-02-02T20:29:38.317Z,80.87
2023-02-02T20:32:16.336Z,81.35
2023-02-02T20:34:46.041Z,80.94
2023-02-02T20:37:17.150Z,81.06
2023-02-02T20:39:54.786Z,80.94
2023-02-02T20:42:24.507Z,80.82
2023-02-02T20:44:54.057Z,81.26
2023-02-02T20:47:23.062Z,81.11
2023-02-02T20:49:51.918Z,81.17
2023-02-02T20:52:24.559Z,81.30
2023-02-02T20:54:53.406Z,81.10
2023-02-02T20:57:22.276Z,81.35
2023-02-02T20:59:58.034Z,81.19
2023-02-02T21:02:28.572Z,81.09
2023-02-02T21:04:57.622Z,81.04
2023-02-02T21:07:27.531Z,81.46
2023-02-02T21:09:56.487Z,81.13
2023-02-02T21:12:26.230Z,81.12
2023-02-02T21:14:55.481Z,81.12
2023-02-02T21:17:24.598Z,81.08
2023-02-02T21:19:53.626Z,80.80
2023-02-02T21:22:22.601Z,80.70
2023-02-02T21:24:51.444Z,81.27
2023-02-02T21:27:20.518Z,80.94
2023-02-02T21:29:49.430Z,81.41
2023-02-02T21:32:18.279Z,80.85
2023-02-02T21:34:47.144Z,81.25
2023-02-02T21:37:17.087Z,81.12
2023-02-02T21:39:51.830Z,80.97
2023-02-02T21:42:22.969Z,81.09
2023-02-02T21:44:57.269Z,81.22
2023-02-02T21:47:38.035Z,81.52
2023-02-02T21:50:24.093Z,81.09
2023-02-02T21:53:01.330Z,80.85
2023-02-02T21:55:32.819Z,81.31
2023-02-02T21:58:12.980Z,81.14
2023-02-02T22:00:42.549Z,81.19
2023-02-02T22:03:25.792Z,81.25
2023-02-02T22:06:13.563Z,80.96
2023-02-02T22:08:42.445Z,81.38
2023-02-02T22:11:40.546Z,80.87
2023-02-02T22:14:28.245Z,81.16
2023-02-02T22:16:59.232Z,81.07
2023-02-02T22:19:38.752Z,81.04
2023-02-02T22:22:23.179Z,80.98
2023-02-02T22:25:25.292Z,81.33
2023-02-02T22:28:00.215Z,81.10
2023-02-02T22:30:40.893Z,81.21
2023-02-02T22:33:11.961Z,80.97
2023-02-02T22:35:41.932Z,80.93
2023-02-02T22:38:20.887Z,81.13
2023-02-02T22:40:53.125Z,80.94
2023-02-02T22:43:23.147Z,81.41
2023-02-02T22:45:52.016Z,81.21
2023-02-02T22:48:20.845Z,81.01
2023-02-02T22:50:50.186Z,81.30
2023-02-02T22:53:19.149Z,81.27
2023-02-02T22:55:48.025Z,81.63
2023-02-02T22:58:16.808Z,81.50
2023-02-02T23:00:46.969Z,81.28
2023-02-02T23:03:18.695Z,81.14
2023-02-02T23:05:51.802Z,81.25
2023-02-02T23:08:22.257Z,81.26
2023-02-02T23:10:51.110Z,81.14
2023-02-02T23:13:20.882Z,80.84
2023-02-02T23:15:49.683Z,81.18
2023-02-02T23:18:18.523Z,81.29
2023-02-02T23:20:49.274Z,81.12
2023-02-02T23:23:18.081Z,81.37
2023-02-02T23:25:46.925Z,81.31
2023-02-02T23:28:15.844Z,81.43
2023-02-02T23:30:44.742Z,81.29
2023-02-02T23:33:13.611Z,81.58
2023-02-02T23:35:42.611Z,80.98
2023-02-02T23:38:11.422Z,81.30
2023-02-02T23:40:40.260Z,81.44
2023-02-02T23:43:09.100Z,81.27
2023-02-02T23:45:39.468Z,81.64
2023-02-02T23:48:10.574Z,81.20
2023-02-02T23:50:40.352Z,81.33
2023-02-02T23:53:11.833Z,81.22
2023-02-02T23:55:42.731Z,81.20
2023-02-02T23:58:12.289Z,81.38
